Airport View

Enter AWOS ICAO identifier for current METAR.

ex. KFNL

KFOD 191256Z AUTO 34006KT 10SM -RA OVC007 09/09 A2962 RMK AO2 RAB1159 SLP058 P0000 T00940089

19 May 2019 13:03

Frequency: 118.775

Phone: 515-955-5490

Other Area AWOS: KEBS - KCAV - KAXA - KBNW

TAF KFOD 191138Z 1912/2012 32003KT P6SM VCSH OVC007 FM191500 32016G24KT P6SM VCSH OVC010 FM191800 31015G23KT P6SM OVC015 FM192200 32017G25KT P6SM VCSH OVC015 FM200800 33010KT P6SM SCT045